LFLW 210400Z AUTO 33003KT CAVOK M02/M07 Q1026

ElémentsDécodage
LFLW Station météo située sur l'aérodrome de AURILLAC
210400Z émis le 21 du mois à 04h00 UTC
AUTO Bulletin édité par un automate
33003KT vent du 330°, 03 noeuds
CAVOK Ceiling And Visibility OK
- Visibilité de 10 Km ou plus
- Pas de nuage au-dessous de 1500m ou au-dessous de l'altitude minimale du secteur la plus élevée (si>1500m) et absence de CB
- pas de temps présent significatif
M02/M07 température -02°C, point de rosée -07°C
 soit une humidité relative de 69%
Q1026 la pression au niveau de la mer (QNH) est de 1026 hPa